sensor_id;sensor_type;location;lat;lon;timestamp;pressure;altitude;pressure_sealevel;temperature;humidity
55271;BME280;41132;47.162;9.470;2023-04-24T00:00:54;95778.41;;;11.01;100.00
55271;BME280;41132;47.162;9.470;2023-04-24T00:03:24;95781.00;;;11.09;100.00
55271;BME280;41132;47.162;9.470;2023-04-24T00:05:50;95787.16;;;11.16;100.00
55271;BME280;41132;47.162;9.470;2023-04-24T00:08:16;95782.16;;;11.06;100.00
55271;BME280;41132;47.162;9.470;2023-04-24T00:10:42;95774.50;;;11.20;100.00
55271;BME280;41132;47.162;9.470;2023-04-24T00:13:07;95771.56;;;11.15;100.00
55271;BME280;41132;47.162;9.470;2023-04-24T00:15:33;95771.03;;;11.19;100.00
55271;BME280;41132;47.162;9.470;2023-04-24T00:17:58;95784.25;;;11.11;100.00
55271;BME280;41132;47.162;9.470;2023-04-24T00:20:23;95766.41;;;11.06;100.00
55271;BME280;41132;47.162;9.470;2023-04-24T00:22:49;95773.03;;;11.40;100.00
55271;BME280;41132;47.162;9.470;2023-04-24T00:25:14;95766.38;;;11.29;100.00
55271;BME280;41132;47.162;9.470;2023-04-24T00:27:40;95747.66;;;11.10;100.00
55271;BME280;41132;47.162;9.470;2023-04-24T00:30:06;95749.53;;;11.01;100.00
55271;BME280;41132;47.162;9.470;2023-04-24T00:32:31;95763.59;;;11.08;100.00
55271;BME280;41132;47.162;9.470;2023-04-24T00:34:56;95748.84;;;11.07;100.00
55271;BME280;41132;47.162;9.470;2023-04-24T00:37:22;95747.94;;;11.15;100.00
55271;BME280;41132;47.162;9.470;2023-04-24T00:39:47;95758.41;;;11.00;100.00
55271;BME280;41132;47.162;9.470;2023-04-24T00:42:12;95763.59;;;11.08;100.00
55271;BME280;41132;47.162;9.470;2023-04-24T00:44:38;95756.59;;;11.00;100.00
55271;BME280;41132;47.162;9.470;2023-04-24T00:47:04;95765.66;;;10.98;100.00
55271;BME280;41132;47.162;9.470;2023-04-24T00:49:29;95747.66;;;11.10;100.00
55271;BME280;41132;47.162;9.470;2023-04-24T00:51:55;95753.63;;;11.03;100.00
55271;BME280;41132;47.162;9.470;2023-04-24T00:54:22;95751.81;;;11.04;100.00
55271;BME280;41132;47.162;9.470;2023-04-24T00:56:47;95746.09;;;11.00;100.00
55271;BME280;41132;47.162;9.470;2023-04-24T00:59:15;95759.88;;;11.02;100.00
55271;BME280;41132;47.162;9.470;2023-04-24T01:01:41;95765.06;;;11.11;100.00
55271;BME280;41132;47.162;9.470;2023-04-24T01:04:07;95728.56;;;10.78;100.00
55271;BME280;41132;47.162;9.470;2023-04-24T01:06:32;95737.84;;;10.89;100.00
55271;BME280;41132;47.162;9.470;2023-04-24T01:08:59;95748.78;;;10.92;100.00
55271;BME280;41132;47.162;9.470;2023-04-24T01:11:25;95740.75;;;10.94;100.00
55271;BME280;41132;47.162;9.470;2023-04-24T01:13:51;95737.41;;;11.00;100.00
55271;BME280;41132;47.162;9.470;2023-04-24T01:16:17;95739.16;;;10.84;100.00
55271;BME280;41132;47.162;9.470;2023-04-24T01:18:44;95724.88;;;10.87;100.00
55271;BME280;41132;47.162;9.470;2023-04-24T01:21:13;95745.34;;;10.92;100.00
55271;BME280;41132;47.162;9.470;2023-04-24T01:23:38;95740.91;;;10.92;100.00
55271;BME280;41132;47.162;9.470;2023-04-24T01:26:04;95743.50;;;10.77;100.00
55271;BME280;41132;47.162;9.470;2023-04-24T01:28:30;95742.03;;;10.75;100.00
55271;BME280;41132;47.162;9.470;2023-04-24T01:30:56;95746.13;;;10.77;100.00
55271;BME280;41132;47.162;9.470;2023-04-24T01:33:22;95744.25;;;10.63;100.00
55271;BME280;41132;47.162;9.470;2023-04-24T01:35:48;95745.06;;;10.63;100.00
55271;BME280;41132;47.162;9.470;2023-04-24T01:38:14;95736.53;;;10.61;100.00
55271;BME280;41132;47.162;9.470;2023-04-24T01:40:39;95728.25;;;10.50;100.00
55271;BME280;41132;47.162;9.470;2023-04-24T01:43:05;95723.94;;;10.57;100.00
55271;BME280;41132;47.162;9.470;2023-04-24T01:45:30;95741.16;;;10.59;100.00
55271;BME280;41132;47.162;9.470;2023-04-24T01:47:56;95738.47;;;10.68;100.00
55271;BME280;41132;47.162;9.470;2023-04-24T01:50:21;95717.69;;;10.35;100.00
55271;BME280;41132;47.162;9.470;2023-04-24T01:52:47;95726.28;;;10.52;100.00
55271;BME280;41132;47.162;9.470;2023-04-24T01:55:12;95754.13;;;10.53;100.00
55271;BME280;41132;47.162;9.470;2023-04-24T01:57:38;95731.81;;;10.57;100.00
55271;BME280;41132;47.162;9.470;2023-04-24T02:00:04;95743.75;;;10.36;100.00
55271;BME280;41132;47.162;9.470;2023-04-24T02:02:31;95742.19;;;10.50;100.00
55271;BME280;41132;47.162;9.470;2023-04-24T02:04:57;95752.53;;;10.52;100.00
55271;BME280;41132;47.162;9.470;2023-04-24T02:07:22;95749.19;;;10.58;100.00
55271;BME280;41132;47.162;9.470;2023-04-24T02:09:48;95738.03;;;10.33;100.00
55271;BME280;41132;47.162;9.470;2023-04-24T02:12:14;95749.28;;;10.41;100.00
55271;BME280;41132;47.162;9.470;2023-04-24T02:14:40;95757.06;;;10.27;100.00
55271;BME280;41132;47.162;9.470;2023-04-24T02:17:05;95749.88;;;10.20;100.00
55271;BME280;41132;47.162;9.470;2023-04-24T02:19:31;95733.47;;;10.18;100.00
55271;BME280;41132;47.162;9.470;2023-04-24T02:21:57;95752.50;;;10.20;100.00
55271;BME280;41132;47.162;9.470;2023-04-24T02:24:22;95753.81;;;10.16;100.00
55271;BME280;41132;47.162;9.470;2023-04-24T02:26:47;95761.00;;;10.22;100.00
55271;BME280;41132;47.162;9.470;2023-04-24T02:29:13;95748.69;;;10.31;100.00
55271;BME280;41132;47.162;9.470;2023-04-24T02:31:39;95758.56;;;10.29;100.00
55271;BME280;41132;47.162;9.470;2023-04-24T02:34:04;95751.31;;;10.23;100.00
55271;BME280;41132;47.162;9.470;2023-04-24T02:36:29;95749.50;;;10.23;100.00
55271;BME280;41132;47.162;9.470;2023-04-24T02:38:55;95753.59;;;10.26;100.00
55271;BME280;41132;47.162;9.470;2023-04-24T02:41:21;95749.72;;;10.14;100.00
55271;BME280;41132;47.162;9.470;2023-04-24T02:43:46;95750.53;;;10.22;100.00
55271;BME280;41132;47.162;9.470;2023-04-24T02:46:11;95758.31;;;10.39;100.00
55271;BME280;41132;47.162;9.470;2023-04-24T02:48:37;95743.94;;;10.27;100.00
55271;BME280;41132;47.162;9.470;2023-04-24T02:51:02;95751.78;;;10.35;100.00
55271;BME280;41132;47.162;9.470;2023-04-24T02:53:28;95761.63;;;10.33;100.00
55271;BME280;41132;47.162;9.470;2023-04-24T02:55:55;95750.53;;;10.22;100.00
55271;BME280;41132;47.162;9.470;2023-04-24T02:58:21;95745.28;;;10.22;100.00
55271;BME280;41132;47.162;9.470;2023-04-24T03:00:47;95741.44;;;10.02;100.00
55271;BME280;41132;47.162;9.470;2023-04-24T03:03:12;95754.63;;;10.17;100.00
55271;BME280;41132;47.162;9.470;2023-04-24T03:05:38;95750.81;;;10.36;100.00
55271;BME280;41132;47.162;9.470;2023-04-24T03:08:03;95711.88;;;10.08;100.00
55271;BME280;41132;47.162;9.470;2023-04-24T03:10:29;95722.63;;;10.30;100.00
55271;BME280;41132;47.162;9.470;2023-04-24T03:12:54;95749.50;;;10.23;100.00
55271;BME280;41132;47.162;9.470;2023-04-24T03:15:20;95762.63;;;10.23;100.00
55271;BME280;41132;47.162;9.470;2023-04-24T03:17:45;95745.16;;;10.08;100.00
55271;BME280;41132;47.162;9.470;2023-04-24T03:20:11;95750.69;;;10.13;100.00
55271;BME280;41132;47.162;9.470;2023-04-24T03:22:36;95764.47;;;10.15;100.00
55271;BME280;41132;47.162;9.470;2023-04-24T03:25:02;95755.19;;;10.04;100.00
55271;BME280;41132;47.162;9.470;2023-04-24T03:27:27;95755.78;;;10.14;100.00
55271;BME280;41132;47.162;9.470;2023-04-24T03:29:52;95757.09;;;10.10;100.00
55271;BME280;41132;47.162;9.470;2023-04-24T03:32:21;95727.53;;;9.93;100.00
55271;BME280;41132;47.162;9.470;2023-04-24T03:34:47;95750.09;;;10.11;100.00
55271;BME280;41132;47.162;9.470;2023-04-24T03:37:12;95765.13;;;10.17;100.00
55271;BME280;41132;47.162;9.470;2023-04-24T03:39:38;95742.47;;;9.93;100.00
55271;BME280;41132;47.162;9.470;2023-04-24T03:42:03;95750.63;;;9.98;100.00
55271;BME280;41132;47.162;9.470;2023-04-24T03:44:28;95725.16;;;9.75;100.00
55271;BME280;41132;47.162;9.470;2023-04-24T03:46:54;95742.53;;;10.08;100.00
55271;BME280;41132;47.162;9.470;2023-04-24T03:49:19;95715.25;;;9.94;100.00
55271;BME280;41132;47.162;9.470;2023-04-24T03:51:45;95726.41;;;9.88;100.00
55271;BME280;41132;47.162;9.470;2023-04-24T03:54:10;95739.84;;;9.85;100.00
55271;BME280;41132;47.162;9.470;2023-04-24T03:56:36;95736.72;;;9.89;100.00
55271;BME280;41132;47.162;9.470;2023-04-24T03:59:01;95739.56;;;9.71;100.00
55271;BME280;41132;47.162;9.470;2023-04-24T04:01:27;95734.97;;;9.73;100.00
55271;BME280;41132;47.162;9.470;2023-04-24T04:03:53;95762.47;;;9.86;100.00
55271;BME280;41132;47.162;9.470;2023-04-24T04:06:18;95748.50;;;9.93;100.00
55271;BME280;41132;47.162;9.470;2023-04-24T04:08:44;95748.50;;;9.93;100.00
55271;BME280;41132;47.162;9.470;2023-04-24T04:11:10;95748.03;;;9.90;100.00
55271;BME280;41132;47.162;9.470;2023-04-24T04:13:35;95715.84;;;9.65;100.00
55271;BME280;41132;47.162;9.470;2023-04-24T04:16:01;95762.66;;;9.76;100.00
55271;BME280;41132;47.162;9.470;2023-04-24T04:18:26;95733.88;;;9.68;100.00
55271;BME280;41132;47.162;9.470;2023-04-24T04:20:51;95743.13;;;9.78;100.00
55271;BME280;41132;47.162;9.470;2023-04-24T04:23:17;95746.28;;;9.74;100.00
55271;BME280;41132;47.162;9.470;2023-04-24T04:25:42;95784.53;;;9.99;100.00
55271;BME280;41132;47.162;9.470;2023-04-24T04:28:08;95778.50;;;9.82;100.00
55271;BME280;41132;47.162;9.470;2023-04-24T04:30:33;95756.34;;;9.54;100.00
55271;BME280;41132;47.162;9.470;2023-04-24T04:32:59;95748.78;;;9.59;100.00
55271;BME280;41132;47.162;9.470;2023-04-24T04:35:24;95750.78;;;9.40;100.00
55271;BME280;41132;47.162;9.470;2023-04-24T04:37:50;95789.22;;;9.56;100.00
55271;BME280;41132;47.162;9.470;2023-04-24T04:40:16;95789.38;;;9.55;100.00
55271;BME280;41132;47.162;9.470;2023-04-24T04:42:42;95771.09;;;9.30;100.00
55271;BME280;41132;47.162;9.470;2023-04-24T04:45:11;95785.13;;;9.62;100.00
55271;BME280;41132;47.162;9.470;2023-04-24T04:47:37;95793.50;;;9.49;100.00
55271;BME280;41132;47.162;9.470;2023-04-24T04:50:02;95790.38;;;9.54;100.00
55271;BME280;41132;47.162;9.470;2023-04-24T04:52:29;95781.69;;;9.53;100.00
55271;BME280;41132;47.162;9.470;2023-04-24T04:54:55;95785.78;;;9.56;100.00
55271;BME280;41132;47.162;9.470;2023-04-24T04:57:20;95794.28;;;9.66;100.00
55271;BME280;41132;47.162;9.470;2023-04-24T04:59:46;95790.03;;;9.57;100.00
55271;BME280;41132;47.162;9.470;2023-04-24T05:02:12;95791.34;;;9.61;100.00
55271;BME280;41132;47.162;9.470;2023-04-24T05:04:37;95784.50;;;9.52;100.00
55271;BME280;41132;47.162;9.470;2023-04-24T05:07:03;95787.13;;;9.52;100.00
55271;BME280;41132;47.162;9.470;2023-04-24T05:09:28;95778.09;;;9.54;100.00
55271;BME280;41132;47.162;9.470;2023-04-24T05:11:54;95781.28;;;9.81;100.00
55271;BME280;41132;47.162;9.470;2023-04-24T05:14:20;95787.44;;;9.65;100.00
55271;BME280;41132;47.162;9.470;2023-04-24T05:16:46;95768.28;;;9.40;100.00
55271;BME280;41132;47.162;9.470;2023-04-24T05:19:11;95781.88;;;9.52;100.00
55271;BME280;41132;47.162;9.470;2023-04-24T05:21:39;95793.78;;;9.71;100.00
55271;BME280;41132;47.162;9.470;2023-04-24T05:24:04;95785.72;;;9.80;100.00
55271;BME280;41132;47.162;9.470;2023-04-24T05:26:30;95763.28;;;9.78;100.00
55271;BME280;41132;47.162;9.470;2023-04-24T05:28:55;95789.50;;;9.86;100.00
55271;BME280;41132;47.162;9.470;2023-04-24T05:31:21;95783.94;;;9.73;100.00
55271;BME280;41132;47.162;9.470;2023-04-24T05:33:46;95788.03;;;9.75;100.00
55271;BME280;41132;47.162;9.470;2023-04-24T05:36:12;95800.31;;;9.75;100.00
55271;BME280;41132;47.162;9.470;2023-04-24T05:38:37;95800.34;;;9.67;100.00
55271;BME280;41132;47.162;9.470;2023-04-24T05:41:03;95797.72;;;9.67;100.00
55271;BME280;41132;47.162;9.470;2023-04-24T05:43:28;95790.34;;;9.62;100.00
55271;BME280;41132;47.162;9.470;2023-04-24T05:45:53;95796.91;;;9.66;100.00
55271;BME280;41132;47.162;9.470;2023-04-24T05:48:19;95806.88;;;9.62;100.00
55271;BME280;41132;47.162;9.470;2023-04-24T05:50:44;95803.75;;;9.67;100.00
55271;BME280;41132;47.162;9.470;2023-04-24T05:53:10;95790.69;;;9.59;100.00
55271;BME280;41132;47.162;9.470;2023-04-24T05:55:36;95804.28;;;9.46;100.00
55271;BME280;41132;47.162;9.470;2023-04-24T05:58:02;95820.47;;;9.66;100.00
55271;BME280;41132;47.162;9.470;2023-04-24T06:00:27;95829.66;;;9.70;100.00
55271;BME280;41132;47.162;9.470;2023-04-24T06:02:53;95838.09;;;9.97;100.00
55271;BME280;41132;47.162;9.470;2023-04-24T06:05:19;95847.63;;;9.98;100.00
55271;BME280;41132;47.162;9.470;2023-04-24T06:07:45;95832.84;;;9.97;100.00
55271;BME280;41132;47.162;9.470;2023-04-24T06:10:10;95843.50;;;10.03;100.00
55271;BME280;41132;47.162;9.470;2023-04-24T06:12:35;95848.66;;;9.64;100.00
55271;BME280;41132;47.162;9.470;2023-04-24T06:15:02;95857.47;;;9.71;100.00
55271;BME280;41132;47.162;9.470;2023-04-24T06:17:27;95859.75;;;9.91;100.00
55271;BME280;41132;47.162;9.470;2023-04-24T06:19:52;95859.59;;;9.76;100.00
55271;BME280;41132;47.162;9.470;2023-04-24T06:22:18;95861.88;;;9.87;100.00
55271;BME280;41132;47.162;9.470;2023-04-24T06:24:43;95868.47;;;9.75;100.00
55271;BME280;41132;47.162;9.470;2023-04-24T06:27:10;95872.88;;;9.66;100.00
55271;BME280;41132;47.162;9.470;2023-04-24T06:29:36;95865.69;;;9.68;100.00
55271;BME280;41132;47.162;9.470;2023-04-24T06:32:01;95858.94;;;9.90;100.00
55271;BME280;41132;47.162;9.470;2023-04-24T06:34:26;95858.44;;;9.78;100.00
55271;BME280;41132;47.162;9.470;2023-04-24T06:36:52;95851.19;;;10.05;100.00
55271;BME280;41132;47.162;9.470;2023-04-24T06:39:17;95832.63;;;10.23;100.00
55271;BME280;41132;47.162;9.470;2023-04-24T06:41:43;95840.84;;;10.20;100.00
55271;BME280;41132;47.162;9.470;2023-04-24T06:44:08;95841.50;;;10.06;100.00
55271;BME280;41132;47.162;9.470;2023-04-24T06:46:33;95870.91;;;9.85;100.00
55271;BME280;41132;47.162;9.470;2023-04-24T06:49:00;95892.19;;;9.90;100.00
55271;BME280;41132;47.162;9.470;2023-04-24T06:51:26;95895.47;;;9.67;100.00
55271;BME280;41132;47.162;9.470;2023-04-24T06:53:53;95891.38;;;9.73;100.00
55271;BME280;41132;47.162;9.470;2023-04-24T06:56:19;95892.84;;;9.75;100.00
55271;BME280;41132;47.162;9.470;2023-04-24T06:58:45;95892.53;;;9.87;100.00
55271;BME280;41132;47.162;9.470;2023-04-24T07:01:11;95897.78;;;9.70;100.00
55271;BME280;41132;47.162;9.470;2023-04-24T07:03:36;95903.81;;;9.95;100.00
55271;BME280;41132;47.162;9.470;2023-04-24T07:06:02;95908.88;;;9.97;100.00
55271;BME280;41132;47.162;9.470;2023-04-24T07:08:29;95907.25;;;9.88;100.00
55271;BME280;41132;47.162;9.470;2023-04-24T07:10:56;95922.69;;;9.74;100.00
55271;BME280;41132;47.162;9.470;2023-04-24T07:13:22;95918.72;;;9.87;100.00
55271;BME280;41132;47.162;9.470;2023-04-24T07:15:47;95921.34;;;9.95;100.00
55271;BME280;41132;47.162;9.470;2023-04-24T07:18:15;95912.03;;;9.84;100.00
55271;BME280;41132;47.162;9.470;2023-04-24T07:20:41;95906.91;;;10.15;100.00
55271;BME280;41132;47.162;9.470;2023-04-24T07:23:06;95876.44;;;10.06;100.00
55271;BME280;41132;47.162;9.470;2023-04-24T07:25:31;95908.19;;;10.36;100.00
55271;BME280;41132;47.162;9.470;2023-04-24T07:27:57;95899.84;;;10.16;100.00
55271;BME280;41132;47.162;9.470;2023-04-24T07:30:22;95880.03;;;10.05;100.00
55271;BME280;41132;47.162;9.470;2023-04-24T07:32:48;95911.63;;;10.36;100.00
55271;BME280;41132;47.162;9.470;2023-04-24T07:35:13;95874.03;;;10.52;100.00
55271;BME280;41132;47.162;9.470;2023-04-24T07:37:39;95887.25;;;11.44;100.00
55271;BME280;41132;47.162;9.470;2023-04-24T07:40:05;95907.28;;;13.96;100.00
55271;BME280;41132;47.162;9.470;2023-04-24T07:42:30;95921.22;;;15.30;100.00
55271;BME280;41132;47.162;9.470;2023-04-24T07:44:56;95916.13;;;14.73;100.00
55271;BME280;41132;47.162;9.470;2023-04-24T07:47:21;95910.06;;;14.16;100.00
55271;BME280;41132;47.162;9.470;2023-04-24T07:49:47;95913.44;;;15.08;100.00
55271;BME280;41132;47.162;9.470;2023-04-24T07:52:12;95890.69;;;16.74;100.00
55271;BME280;41132;47.162;9.470;2023-04-24T07:54:38;95914.31;;;16.88;89.04
55271;BME280;41132;47.162;9.470;2023-04-24T07:57:03;95910.47;;;17.29;87.06
55271;BME280;41132;47.162;9.470;2023-04-24T07:59:29;95908.59;;;17.37;84.45
55271;BME280;41132;47.162;9.470;2023-04-24T08:01:54;95922.28;;;16.88;86.55
55271;BME280;41132;47.162;9.470;2023-04-24T08:04:20;95889.78;;;15.61;92.94
55271;BME280;41132;47.162;9.470;2023-04-24T08:06:47;95904.31;;;14.63;98.19
55271;BME280;41132;47.162;9.470;2023-04-24T08:09:12;95897.94;;;13.94;100.00
55271;BME280;41132;47.162;9.470;2023-04-24T08:11:38;95899.31;;;13.25;100.00
55271;BME280;41132;47.162;9.470;2023-04-24T08:14:03;95882.47;;;13.05;100.00
55271;BME280;41132;47.162;9.470;2023-04-24T08:16:29;95904.84;;;12.94;100.00
55271;BME280;41132;47.162;9.470;2023-04-24T08:18:54;95878.22;;;12.38;100.00
55271;BME280;41132;47.162;9.470;2023-04-24T08:21:19;95896.44;;;11.95;100.00
55271;BME280;41132;47.162;9.470;2023-04-24T08:23:46;95903.69;;;11.69;100.00
55271;BME280;41132;47.162;9.470;2023-04-24T08:26:12;95906.56;;;11.05;100.00
55271;BME280;41132;47.162;9.470;2023-04-24T08:28:38;95942.66;;;11.12;100.00
55271;BME280;41132;47.162;9.470;2023-04-24T08:31:03;95921.16;;;10.77;100.00
55271;BME280;41132;47.162;9.470;2023-04-24T08:33:29;95952.88;;;10.51;100.00
55271;BME280;41132;47.162;9.470;2023-04-24T08:36:05;95984.31;;;10.67;100.00
55271;BME280;41132;47.162;9.470;2023-04-24T08:38:31;95954.56;;;10.52;100.00
55271;BME280;41132;47.162;9.470;2023-04-24T08:40:58;96011.72;;;10.73;100.00
55271;BME280;41132;47.162;9.470;2023-04-24T08:43:25;95998.81;;;10.47;100.00
55271;BME280;41132;47.162;9.470;2023-04-24T08:45:51;96009.81;;;10.58;100.00
55271;BME280;41132;47.162;9.470;2023-04-24T08:48:18;96001.59;;;10.61;100.00
55271;BME280;41132;47.162;9.470;2023-04-24T08:50:44;96008.78;;;10.68;100.00
55271;BME280;41132;47.162;9.470;2023-04-24T08:53:10;95971.69;;;10.79;100.00
55271;BME280;41132;47.162;9.470;2023-04-24T08:55:35;96008.19;;;11.36;100.00
55271;BME280;41132;47.162;9.470;2023-04-24T08:58:02;96014.66;;;12.26;100.00
55271;BME280;41132;47.162;9.470;2023-04-24T09:00:28;96000.69;;;13.44;100.00
55271;BME280;41132;47.162;9.470;2023-04-24T09:02:55;96000.16;;;13.49;99.19
55271;BME280;41132;47.162;9.470;2023-04-24T09:05:21;95992.59;;;14.81;83.19
55271;BME280;41132;47.162;9.470;2023-04-24T09:07:53;95977.38;;;16.06;75.87
55271;BME280;41132;47.162;9.470;2023-04-24T09:10:21;95968.78;;;15.91;81.74
55271;BME280;41132;47.162;9.470;2023-04-24T09:12:46;95974.72;;;16.00;72.13
55271;BME280;41132;47.162;9.470;2023-04-24T09:15:12;95975.13;;;15.29;70.59
55271;BME280;41132;47.162;9.470;2023-04-24T09:17:38;95976.84;;;14.17;87.87
55271;BME280;41132;47.162;9.470;2023-04-24T09:20:04;95959.97;;;14.11;74.77
55271;BME280;41132;47.162;9.470;2023-04-24T09:22:30;95949.13;;;13.56;83.23
55271;BME280;41132;47.162;9.470;2023-04-24T09:25:03;95938.91;;;13.47;75.65
55271;BME280;41132;47.162;9.470;2023-04-24T09:27:31;95954.94;;;13.15;93.19
55271;BME280;41132;47.162;9.470;2023-04-24T09:29:57;95957.50;;;13.09;100.00
55271;BME280;41132;47.162;9.470;2023-04-24T09:32:23;95957.13;;;13.12;100.00
55271;BME280;41132;47.162;9.470;2023-04-24T09:35:14;95957.59;;;13.01;100.00
55271;BME280;41132;47.162;9.470;2023-04-24T09:37:46;95960.06;;;13.02;100.00
55271;BME280;41132;47.162;9.470;2023-04-24T09:42:44;95950.44;;;12.50;100.00
55271;BME280;41132;47.162;9.470;2023-04-24T09:45:10;95951.34;;;12.57;100.00
55271;BME280;41132;47.162;9.470;2023-04-24T09:47:40;95941.38;;;12.52;100.00
55271;BME280;41132;47.162;9.470;2023-04-24T09:50:16;95941.72;;;12.64;100.00
55271;BME280;41132;47.162;9.470;2023-04-24T09:52:43;95945.19;;;12.94;100.00
55271;BME280;41132;47.162;9.470;2023-04-24T09:55:27;95926.22;;;13.21;86.34
55271;BME280;41132;47.162;9.470;2023-04-24T09:58:00;95938.44;;;14.36;75.92
55271;BME280;41132;47.162;9.470;2023-04-24T10:00:27;95942.84;;;15.40;85.72
55271;BME280;41132;47.162;9.470;2023-04-24T10:02:55;95944.78;;;16.06;72.68
55271;BME280;41132;47.162;9.470;2023-04-24T10:05:23;95942.75;;;15.88;80.17
55271;BME280;41132;47.162;9.470;2023-04-24T10:07:49;95944.38;;;15.21;76.12
55271;BME280;41132;47.162;9.470;2023-04-24T10:10:15;95943.69;;;14.99;82.40
55271;BME280;41132;47.162;9.470;2023-04-24T10:12:41;95944.88;;;14.27;78.96
55271;BME280;41132;47.162;9.470;2023-04-24T10:15:10;95948.94;;;13.79;82.86
55271;BME280;41132;47.162;9.470;2023-04-24T10:17:37;95961.94;;;13.60;88.02
55271;BME280;41132;47.162;9.470;2023-04-24T10:20:04;95958.94;;;14.34;88.13
55271;BME280;41132;47.162;9.470;2023-04-24T10:22:32;95966.22;;;14.32;84.52
55271;BME280;41132;47.162;9.470;2023-04-24T10:24:58;95972.38;;;14.11;83.89
55271;BME280;41132;47.162;9.470;2023-04-24T10:27:25;95974.31;;;13.59;91.66
55271;BME280;41132;47.162;9.470;2023-04-24T10:29:53;95971.88;;;12.77;84.50
55271;BME280;41132;47.162;9.470;2023-04-24T10:32:18;95973.22;;;12.43;91.72
55271;BME280;41132;47.162;9.470;2023-04-24T10:34:44;96012.00;;;12.11;95.91
55271;BME280;41132;47.162;9.470;2023-04-24T10:37:09;95978.53;;;11.50;91.81
55271;BME280;41132;47.162;9.470;2023-04-24T10:39:35;96014.94;;;11.62;100.00
55271;BME280;41132;47.162;9.470;2023-04-24T10:42:13;95992.56;;;11.43;99.13
55271;BME280;41132;47.162;9.470;2023-04-24T10:44:40;96032.00;;;11.35;100.00
55271;BME280;41132;47.162;9.470;2023-04-24T10:47:05;96028.25;;;11.29;100.00
55271;BME280;41132;47.162;9.470;2023-04-24T10:49:31;96028.00;;;11.47;100.00
55271;BME280;41132;47.162;9.470;2023-04-24T10:52:01;96025.56;;;11.37;100.00
55271;BME280;41132;47.162;9.470;2023-04-24T10:59:52;96033.50;;;11.60;100.00
55271;BME280;41132;47.162;9.470;2023-04-24T11:02:39;96041.22;;;11.85;100.00
55271;BME280;41132;47.162;9.470;2023-04-24T11:05:06;96032.28;;;12.02;100.00
55271;BME280;41132;47.162;9.470;2023-04-24T11:11:09;96029.72;;;12.70;100.00
55271;BME280;41132;47.162;9.470;2023-04-24T11:16:30;96019.91;;;13.08;100.00
55271;BME280;41132;47.162;9.470;2023-04-24T11:21:31;96036.72;;;13.22;100.00
55271;BME280;41132;47.162;9.470;2023-04-24T11:23:57;96026.91;;;13.16;100.00
55271;BME280;41132;47.162;9.470;2023-04-24T11:26:22;96030.09;;;13.26;100.00
55271;BME280;41132;47.162;9.470;2023-04-24T11:28:50;96034.81;;;13.16;93.07
55271;BME280;41132;47.162;9.470;2023-04-24T11:31:38;96039.81;;;12.81;82.95
55271;BME280;41132;47.162;9.470;2023-04-24T11:34:08;96033.09;;;12.79;96.86
55271;BME280;41132;47.162;9.470;2023-04-24T11:36:35;96037.50;;;12.63;96.74
55271;BME280;41132;47.162;9.470;2023-04-24T11:39:01;96025.81;;;12.81;100.00
55271;BME280;41132;47.162;9.470;2023-04-24T11:41:26;96021.03;;;12.46;100.00
55271;BME280;41132;47.162;9.470;2023-04-24T11:43:53;96013.78;;;12.33;99.53
55271;BME280;41132;47.162;9.470;2023-04-24T11:46:20;96025.16;;;12.64;100.00
55271;BME280;41132;47.162;9.470;2023-04-24T11:48:46;96022.81;;;12.54;97.03
55271;BME280;41132;47.162;9.470;2023-04-24T11:51:13;96030.28;;;12.27;87.37
55271;BME280;41132;47.162;9.470;2023-04-24T11:53:39;96026.19;;;12.40;99.46
55271;BME280;41132;47.162;9.470;2023-04-24T11:56:04;96047.09;;;12.41;97.59
55271;BME280;41132;47.162;9.470;2023-04-24T11:58:38;96034.03;;;12.48;98.28
55271;BME280;41132;47.162;9.470;2023-04-24T12:01:04;96002.44;;;12.10;100.00
55271;BME280;41132;47.162;9.470;2023-04-24T12:03:30;96043.56;;;12.11;99.75
55271;BME280;41132;47.162;9.470;2023-04-24T12:06:09;96044.91;;;12.07;96.65
55271;BME280;41132;47.162;9.470;2023-04-24T12:08:34;96021.13;;;12.00;97.90
55271;BME280;41132;47.162;9.470;2023-04-24T12:11:01;96038.13;;;11.19;100.00
55271;BME280;41132;47.162;9.470;2023-04-24T12:13:27;96033.41;;;11.14;100.00
55271;BME280;41132;47.162;9.470;2023-04-24T12:15:52;96036.66;;;11.24;100.00
55271;BME280;41132;47.162;9.470;2023-04-24T12:18:18;96054.09;;;11.48;100.00
55271;BME280;41132;47.162;9.470;2023-04-24T12:20:43;96045.50;;;11.63;100.00
55271;BME280;41132;47.162;9.470;2023-04-24T12:23:08;96042.94;;;11.78;100.00
55271;BME280;41132;47.162;9.470;2023-04-24T12:25:34;96061.72;;;11.98;100.00
55271;BME280;41132;47.162;9.470;2023-04-24T12:30:38;96046.25;;;12.03;100.00
55271;BME280;41132;47.162;9.470;2023-04-24T12:33:04;96042.13;;;12.23;100.00
55271;BME280;41132;47.162;9.470;2023-04-24T12:35:31;96026.59;;;12.14;100.00
55271;BME280;41132;47.162;9.470;2023-04-24T12:38:12;96054.59;;;12.29;100.00
55271;BME280;41132;47.162;9.470;2023-04-24T12:40:39;96039.97;;;12.27;100.00
55271;BME280;41132;47.162;9.470;2023-04-24T12:43:18;96034.03;;;12.10;99.59
55271;BME280;41132;47.162;9.470;2023-04-24T12:45:44;96019.81;;;11.96;96.53
55271;BME280;41132;47.162;9.470;2023-04-24T12:48:13;96021.88;;;12.09;98.02
55271;BME280;41132;47.162;9.470;2023-04-24T12:50:42;96025.59;;;12.15;92.48
55271;BME280;41132;47.162;9.470;2023-04-24T12:53:08;96018.13;;;12.26;97.38
55271;BME280;41132;47.162;9.470;2023-04-24T12:55:34;96014.88;;;12.39;99.23
55271;BME280;41132;47.162;9.470;2023-04-24T12:58:00;96017.16;;;12.42;100.00
55271;BME280;41132;47.162;9.470;2023-04-24T13:00:25;96017.22;;;12.49;98.67
55271;BME280;41132;47.162;9.470;2023-04-24T13:02:51;96005.63;;;12.43;91.71
55271;BME280;41132;47.162;9.470;2023-04-24T13:05:16;96011.19;;;12.63;97.42
55271;BME280;41132;47.162;9.470;2023-04-24T13:07:42;96010.19;;;12.79;100.00
55271;BME280;41132;47.162;9.470;2023-04-24T13:10:07;95999.66;;;12.64;83.22